createdAt,value
2022-08-05T03:21:03.895Z,100.00
2022-08-05T03:23:35.591Z,100.00
2022-08-05T03:26:32.061Z,100.00
2022-08-05T03:28:59.798Z,100.00
2022-08-05T03:31:56.244Z,100.00
2022-08-05T03:34:20.686Z,100.00
2022-08-05T03:36:55.597Z,100.00
2022-08-05T03:39:27.320Z,100.00
2022-08-05T03:41:57.996Z,100.00
2022-08-05T03:44:28.936Z,100.00
2022-08-05T03:46:58.892Z,100.00
2022-08-05T03:49:31.149Z,100.00
2022-08-05T03:52:38.697Z,100.00
2022-08-05T03:56:01.658Z,100.00
2022-08-05T03:58:21.041Z,100.00
2022-08-05T04:01:01.347Z,100.00
2022-08-05T04:03:38.121Z,100.00
2022-08-05T04:06:09.312Z,100.00
2022-08-05T04:08:41.009Z,100.00
2022-08-05T04:11:11.029Z,100.00
2022-08-05T04:13:50.840Z,100.00
2022-08-05T04:16:24.156Z,100.00
2022-08-05T04:18:57.690Z,100.00
2022-08-05T04:22:08.318Z,100.00
2022-08-05T04:24:19.274Z,100.00
2022-08-05T04:26:52.250Z,100.00
2022-08-05T04:29:22.223Z,100.00
2022-08-05T04:31:52.600Z,100.00
2022-08-05T04:34:32.638Z,100.00
2022-08-05T04:37:05.625Z,100.00
2022-08-05T04:39:36.612Z,100.00
2022-08-05T04:42:07.996Z,100.00
2022-08-05T04:44:38.792Z,100.00
2022-08-05T04:47:20.200Z,100.00
2022-08-05T04:50:01.574Z,100.00
2022-08-05T04:52:36.250Z,100.00
2022-08-05T04:55:14.905Z,100.00
2022-08-05T04:57:47.481Z,100.00
2022-08-05T05:00:18.820Z,100.00
2022-08-05T05:02:53.308Z,100.00
2022-08-05T05:05:28.335Z,100.00
2022-08-05T05:08:03.029Z,100.00
2022-08-05T05:10:41.963Z,100.00
2022-08-05T05:13:25.572Z,100.00
2022-08-05T05:16:00.508Z,100.00
2022-08-05T05:18:35.369Z,100.00
2022-08-05T05:21:05.699Z,100.00
2022-08-05T05:24:02.550Z,100.00
2022-08-05T05:26:28.335Z,100.00
2022-08-05T05:29:14.168Z,100.00
2022-08-05T05:31:46.509Z,100.00
2022-08-05T05:34:21.173Z,100.00
2022-08-05T05:36:53.677Z,100.00
2022-08-05T05:39:23.309Z,100.00
2022-08-05T05:41:54.694Z,100.00
2022-08-05T05:44:36.419Z,100.00
2022-08-05T05:47:13.108Z,100.00
2022-08-05T05:49:52.642Z,100.00
2022-08-05T05:52:30.061Z,100.00
2022-08-05T05:55:13.097Z,100.00
2022-08-05T05:57:52.348Z,100.00
2022-08-05T06:00:27.740Z,100.00
2022-08-05T06:03:03.001Z,100.00
2022-08-05T06:05:32.756Z,100.00
2022-08-05T06:08:03.941Z,100.00
2022-08-05T06:10:36.654Z,100.00
2022-08-05T06:13:08.488Z,100.00
2022-08-05T06:16:30.596Z,100.00
2022-08-05T06:18:30.960Z,100.00
2022-08-05T06:21:01.472Z,100.00
2022-08-05T06:23:32.179Z,100.00
2022-08-05T06:26:24.065Z,100.00
2022-08-05T06:28:56.044Z,100.00
2022-08-05T06:31:30.491Z,100.00
2022-08-05T06:34:07.406Z,100.00
2022-08-05T06:36:57.513Z,100.00
2022-08-05T06:39:28.287Z,100.00
2022-08-05T06:42:01.281Z,100.00
2022-08-05T06:44:35.415Z,100.00
2022-08-05T06:47:05.157Z,100.00
2022-08-05T06:50:01.932Z,100.00
2022-08-05T06:52:37.828Z,100.00
2022-08-05T06:55:10.679Z,100.00
2022-08-05T06:57:57.534Z,100.00
2022-08-05T07:00:31.401Z,100.00
2022-08-05T07:03:00.965Z,100.00
2022-08-05T07:05:37.127Z,100.00
2022-08-05T07:08:11.022Z,100.00
2022-08-05T07:10:53.393Z,100.00
2022-08-05T07:13:59.164Z,100.00
2022-08-05T07:17:59.722Z,100.00
2022-08-05T07:22:30.168Z,100.00
2022-08-05T07:25:22.695Z,100.00
2022-08-05T07:27:57.993Z,100.00
2022-08-05T07:30:32.598Z,100.00
2022-08-05T07:33:09.240Z,100.00
2022-08-05T07:36:03.870Z,100.00
2022-08-05T07:38:33.246Z,100.00
2022-08-05T07:42:07.063Z,100.00
2022-08-05T07:43:57.561Z,100.00
2022-08-05T07:46:29.397Z,100.00
2022-08-05T07:49:06.155Z,100.00
2022-08-05T07:51:48.663Z,100.00
2022-08-05T07:54:30.398Z,100.00
2022-08-05T07:57:22.753Z,100.00
2022-08-05T07:59:54.009Z,100.00
2022-08-05T08:02:31.382Z,100.00
2022-08-05T08:05:18.818Z,100.00
2022-08-05T08:08:00.215Z,100.00
2022-08-05T08:10:30.509Z,100.00
2022-08-05T08:13:00.734Z,100.00
2022-08-05T08:16:34.606Z,100.00
2022-08-05T08:18:21.798Z,100.00
2022-08-05T08:21:03.135Z,100.00
2022-08-05T08:24:02.637Z,100.00
2022-08-05T08:26:26.850Z,100.00
2022-08-05T08:29:09.727Z,100.00
2022-08-05T08:31:52.111Z,100.00
2022-08-05T08:34:30.557Z,100.00
2022-08-05T08:37:05.170Z,100.00
2022-08-05T08:39:37.324Z,100.00
2022-08-05T08:42:32.610Z,100.00
2022-08-05T08:45:22.763Z,100.00
2022-08-05T08:48:12.528Z,100.00
2022-08-05T08:51:07.577Z,100.00
2022-08-05T08:53:44.998Z,100.00
2022-08-05T08:56:15.358Z,100.00
2022-08-05T08:58:48.574Z,100.00
2022-08-05T09:01:20.030Z,100.00
2022-08-05T09:03:57.402Z,100.00
2022-08-05T09:06:31.157Z,100.00
2022-08-05T09:09:03.109Z,96.15
2022-08-05T09:11:51.090Z,95.24
2022-08-05T09:14:57.715Z,94.44
2022-08-05T09:17:16.084Z,94.81
2022-08-05T09:20:08.438Z,94.34
2022-08-05T09:23:19.176Z,92.86
2022-08-05T09:26:02.418Z,93.78
2022-08-05T09:28:35.015Z,94.07
2022-08-05T09:32:38.593Z,93.82
2022-08-05T09:34:01.649Z,88.97
2022-08-05T09:36:45.712Z,87.56
2022-08-05T09:39:27.765Z,86.60
2022-08-05T09:42:23.152Z,88.30
2022-08-05T09:44:56.200Z,89.27
2022-08-05T09:47:36.383Z,86.08
2022-08-05T09:50:37.417Z,84.89
2022-08-05T09:53:09.150Z,84.70
2022-08-05T09:55:58.411Z,88.37
2022-08-05T09:58:33.510Z,89.09
2022-08-05T10:01:15.295Z,85.14
2022-08-05T10:04:03.137Z,85.35
2022-08-05T10:06:35.075Z,82.19
2022-08-05T10:09:25.023Z,87.51
2022-08-05T10:12:30.497Z,82.86
2022-08-05T10:15:22.515Z,81.35
2022-08-05T10:18:12.364Z,81.27
2022-08-05T10:20:48.314Z,82.27
2022-08-05T10:23:55.706Z,75.76
2022-08-05T10:26:14.494Z,73.98
2022-08-05T10:28:46.602Z,71.09
2022-08-05T10:32:49.379Z,73.14
2022-08-05T10:34:10.825Z,71.71
2022-08-05T10:36:42.717Z,70.50
2022-08-05T10:39:24.840Z,66.39
2022-08-05T10:42:18.474Z,65.40
2022-08-05T10:44:55.929Z,66.63
2022-08-05T10:47:36.766Z,65.64
2022-08-05T10:50:20.867Z,64.59
2022-08-05T10:53:03.257Z,63.42
2022-08-05T10:56:03.826Z,64.39
2022-08-05T10:58:23.317Z,64.16
2022-08-05T11:01:13.632Z,65.69
2022-08-05T11:04:12.016Z,67.64
2022-08-05T11:07:09.085Z,65.54
2022-08-05T11:09:47.049Z,64.56
2022-08-05T11:12:54.502Z,64.63
2022-08-05T11:15:59.074Z,63.60
2022-08-05T11:18:32.246Z,63.19
2022-08-05T11:21:11.183Z,64.11
2022-08-05T11:24:04.620Z,65.65
2022-08-05T11:26:43.463Z,62.58
2022-08-05T11:29:37.929Z,59.87
2022-08-05T11:32:28.279Z,55.64
2022-08-05T11:34:58.777Z,54.29
2022-08-05T11:38:28.477Z,54.92
2022-08-05T11:41:34.293Z,55.42
2022-08-05T11:44:05.797Z,54.50
2022-08-05T11:46:58.312Z,53.68
2022-08-05T11:49:33.933Z,56.71
2022-08-05T11:52:08.831Z,52.90
2022-08-05T11:54:43.426Z,56.63
2022-08-05T11:57:24.841Z,56.56
2022-08-05T11:59:56.305Z,56.94
2022-08-05T12:02:33.472Z,53.77
2022-08-05T12:05:17.927Z,53.56
2022-08-05T12:08:07.348Z,52.97
2022-08-05T12:10:45.612Z,49.88
2022-08-05T12:13:28.161Z,51.49
2022-08-05T12:16:15.070Z,53.95
2022-08-05T12:18:49.465Z,52.05
2022-08-05T12:21:30.450Z,51.37
2022-08-05T12:24:07.188Z,48.01
2022-08-05T12:26:43.981Z,47.27
2022-08-05T12:29:22.546Z,46.28
2022-08-05T12:31:56.139Z,45.35
2022-08-05T12:34:31.073Z,47.56
2022-08-05T12:37:10.573Z,44.29
2022-08-05T12:39:41.722Z,46.45
2022-08-05T12:42:20.432Z,46.57
2022-08-05T12:44:50.756Z,43.60
2022-08-05T12:47:31.783Z,45.42
2022-08-05T12:50:06.433Z,47.36
2022-08-05T12:52:38.782Z,47.46
2022-08-05T12:55:23.594Z,46.20
2022-08-05T12:58:48.440Z,46.60
2022-08-05T13:02:03.366Z,51.68
2022-08-05T13:03:43.281Z,47.15
2022-08-05T13:06:19.820Z,50.50
2022-08-05T13:08:51.440Z,45.41
2022-08-05T13:11:47.018Z,42.18
2022-08-05T13:14:36.562Z,42.37
2022-08-05T13:17:12.179Z,43.47
2022-08-05T13:19:51.867Z,42.24
2022-08-05T13:22:28.379Z,43.61
2022-08-05T13:25:05.159Z,42.59
2022-08-05T13:27:39.579Z,42.33
2022-08-05T13:30:34.733Z,41.47
2022-08-05T13:33:05.569Z,41.94
2022-08-05T13:35:47.395Z,40.11
2022-08-05T13:38:31.057Z,37.82
2022-08-05T13:41:06.470Z,36.62
2022-08-05T13:43:45.197Z,36.06
2022-08-05T13:46:50.583Z,37.17
2022-08-05T13:49:17.280Z,35.82
2022-08-05T13:51:47.161Z,38.80
2022-08-05T13:54:21.072Z,42.20
2022-08-05T13:56:55.423Z,42.70
2022-08-05T13:59:27.396Z,36.55
2022-08-05T14:02:02.904Z,37.23
2022-08-05T14:04:54.623Z,37.46
2022-08-05T14:07:59.920Z,37.75
2022-08-05T14:10:28.109Z,36.06
2022-08-05T14:12:59.733Z,37.08
2022-08-05T14:16:04.343Z,38.75
2022-08-05T14:18:23.222Z,36.56
2022-08-05T14:20:54.951Z,34.78
2022-08-05T14:23:27.439Z,35.22
2022-08-05T14:26:02.540Z,38.03
2022-08-05T14:28:34.522Z,38.30
2022-08-05T14:31:04.221Z,39.98
2022-08-05T14:34:00.361Z,36.74
2022-08-05T14:36:30.502Z,36.30
2022-08-05T14:39:00.210Z,39.04
2022-08-05T14:41:32.466Z,37.44
2022-08-05T14:44:14.480Z,37.30
2022-08-05T14:46:50.243Z,37.93
2022-08-05T14:49:21.173Z,40.94
2022-08-05T14:51:51.683Z,39.87
2022-08-05T14:54:29.757Z,39.06
2022-08-05T14:57:05.348Z,38.99
2022-08-05T14:59:43.152Z,39.78
2022-08-05T15:02:24.208Z,40.43
2022-08-05T15:04:55.285Z,39.97
2022-08-05T15:08:12.422Z,42.27
2022-08-05T15:10:14.289Z,41.16
2022-08-05T15:13:00.306Z,42.69
2022-08-05T15:15:54.087Z,41.56
2022-08-05T15:18:21.526Z,41.91
2022-08-05T15:20:52.673Z,41.27
2022-08-05T15:23:22.588Z,41.08
2022-08-05T15:25:56.645Z,43.20
2022-08-05T15:28:28.126Z,42.02
2022-08-05T15:30:58.400Z,40.50
2022-08-05T15:34:05.014Z,41.23
2022-08-05T15:36:24.468Z,41.44
2022-08-05T15:41:01.028Z,40.34
2022-08-05T15:41:56.014Z,38.19
2022-08-05T15:44:26.411Z,40.03
2022-08-05T15:46:59.262Z,41.10
2022-08-05T15:49:55.173Z,41.42
2022-08-05T15:52:29.140Z,42.31
2022-08-05T15:55:16.298Z,42.09
2022-08-05T15:57:49.010Z,43.17
2022-08-05T16:00:26.510Z,44.15
2022-08-05T16:03:09.229Z,45.68
2022-08-05T16:05:39.163Z,46.40
2022-08-05T16:08:16.111Z,45.30
2022-08-05T16:10:45.777Z,45.17
2022-08-05T16:13:19.391Z,46.14
2022-08-05T16:15:53.722Z,47.81
2022-08-05T16:18:28.093Z,47.47
2022-08-05T16:20:59.870Z,46.93
2022-08-05T16:23:53.744Z,47.92
2022-08-05T16:26:26.431Z,49.37
2022-08-05T16:28:57.085Z,51.75
2022-08-05T16:31:27.786Z,52.24
2022-08-05T16:34:17.888Z,52.02
2022-08-05T16:36:47.888Z,52.90
2022-08-05T16:39:20.606Z,53.84
2022-08-05T16:42:14.697Z,54.07
2022-08-05T16:44:40.097Z,55.51
2022-08-05T16:47:28.805Z,56.04
2022-08-05T16:50:03.364Z,57.70
2022-08-05T16:52:33.664Z,56.42
2022-08-05T16:55:05.522Z,57.10
2022-08-05T16:57:53.703Z,58.84
2022-08-05T17:00:26.010Z,59.46
2022-08-05T17:03:09.312Z,60.89
2022-08-05T17:05:50.273Z,61.09
2022-08-05T17:08:36.001Z,60.64
2022-08-05T17:11:16.884Z,62.00
2022-08-05T17:13:46.934Z,62.54
2022-08-05T17:16:33.027Z,62.42
2022-08-05T17:19:03.590Z,63.41
2022-08-05T17:21:39.792Z,65.97
2022-08-05T17:24:28.158Z,70.81
2022-08-05T17:27:01.598Z,70.58
2022-08-05T17:29:33.098Z,71.89
2022-08-05T17:32:17.297Z,74.42
2022-08-05T17:34:58.137Z,75.25
2022-08-05T17:37:39.648Z,74.83
2022-08-05T17:40:15.915Z,74.24
2022-08-05T17:42:50.859Z,73.77
2022-08-05T17:45:24.846Z,73.12
2022-08-05T17:47:56.466Z,73.17
2022-08-05T17:50:30.392Z,73.61
2022-08-05T17:53:02.915Z,74.57
2022-08-05T17:55:37.712Z,75.60
2022-08-05T17:58:13.359Z,75.98
2022-08-05T18:00:50.769Z,76.24
2022-08-05T18:03:58.575Z,77.79
2022-08-05T18:06:15.386Z,79.62
2022-08-05T18:08:52.626Z,79.86
2022-08-05T18:11:32.947Z,81.64
2022-08-05T18:14:07.161Z,83.77
2022-08-05T18:17:06.881Z,83.95
2022-08-05T18:19:56.345Z,85.07
2022-08-05T18:22:45.918Z,86.82
2022-08-05T18:25:17.249Z,87.58
2022-08-05T18:27:52.523Z,86.46
2022-08-05T18:30:23.517Z,86.84
2022-08-05T18:33:00.474Z,92.63
2022-08-05T18:35:49.407Z,100.00
2022-08-05T18:38:26.033Z,100.00
2022-08-05T18:41:56.590Z,100.00
2022-08-05T18:43:49.130Z,100.00
2022-08-05T18:46:20.755Z,100.00
2022-08-05T18:48:52.785Z,100.00
2022-08-05T18:52:04.400Z,100.00
2022-08-05T18:54:31.965Z,100.00
2022-08-05T18:57:02.702Z,100.00
2022-08-05T18:59:44.036Z,100.00
2022-08-05T19:02:26.694Z,100.00
2022-08-05T19:05:02.532Z,100.00
2022-08-05T19:07:52.374Z,100.00
2022-08-05T19:10:28.001Z,100.00
2022-08-05T19:12:58.610Z,100.00
2022-08-05T19:15:58.902Z,100.00
2022-08-05T19:18:22.619Z,100.00
2022-08-05T19:20:53.646Z,100.00
2022-08-05T19:24:06.524Z,100.00
2022-08-05T19:26:13.846Z,100.00
2022-08-05T19:28:44.426Z,100.00
2022-08-05T19:31:18.046Z,100.00
2022-08-05T19:33:56.462Z,100.00
2022-08-05T19:36:29.514Z,100.00
2022-08-05T19:39:00.901Z,100.00
2022-08-05T19:42:05.690Z,100.00
2022-08-05T19:44:21.938Z,100.00
2022-08-05T19:46:52.218Z,100.00
2022-08-05T19:49:23.525Z,100.00
2022-08-05T19:52:05.328Z,100.00
2022-08-05T19:54:38.584Z,100.00
2022-08-05T19:57:09.878Z,100.00
2022-08-05T19:59:56.195Z,100.00
2022-08-05T20:02:33.478Z,100.00
2022-08-05T20:05:09.597Z,100.00
2022-08-05T20:07:48.173Z,100.00
2022-08-05T20:10:22.206Z,100.00
2022-08-05T20:12:55.032Z,100.00
2022-08-05T20:15:51.568Z,100.00
2022-08-05T20:18:32.781Z,100.00
2022-08-05T20:21:07.401Z,100.00
2022-08-05T20:23:51.211Z,100.00
2022-08-05T20:26:25.689Z,100.00
2022-08-05T20:28:57.881Z,100.00
2022-08-05T20:31:42.832Z,100.00
2022-08-05T20:34:20.444Z,100.00
2022-08-05T20:36:51.306Z,100.00
2022-08-05T20:39:20.990Z,100.00
2022-08-05T20:41:51.059Z,100.00
2022-08-05T20:44:30.714Z,100.00
2022-08-05T20:47:03.264Z,100.00
2022-08-05T20:49:39.282Z,100.00
2022-08-05T20:52:12.232Z,100.00
2022-08-05T20:54:42.905Z,100.00
2022-08-05T20:57:43.530Z,100.00
2022-08-05T21:00:40.809Z,100.00
2022-08-05T21:03:08.323Z,100.00
2022-08-05T21:05:53.752Z,100.00
2022-08-05T21:08:41.413Z,100.00
2022-08-05T21:11:12.653Z,100.00
2022-08-05T21:13:47.766Z,100.00
2022-08-05T21:16:27.614Z,100.00
2022-08-05T21:19:01.675Z,100.00
2022-08-05T21:21:39.848Z,100.00
2022-08-05T21:24:22.277Z,100.00
2022-08-05T21:26:58.250Z,100.00
2022-08-05T21:29:31.850Z,100.00
2022-08-05T21:32:03.954Z,100.00
2022-08-05T21:34:35.618Z,100.00
2022-08-05T21:37:07.965Z,100.00
2022-08-05T21:39:40.441Z,100.00
2022-08-05T21:42:40.873Z,100.00
2022-08-05T21:45:01.276Z,100.00
2022-08-05T21:47:54.994Z,100.00
2022-08-05T21:50:22.173Z,100.00
2022-08-05T21:52:51.881Z,100.00
2022-08-05T21:55:43.156Z,100.00
2022-08-05T21:58:13.320Z,100.00
2022-08-05T22:00:50.965Z,100.00
2022-08-05T22:03:48.452Z,100.00
2022-08-05T22:06:11.518Z,100.00
2022-08-05T22:08:42.618Z,100.00
2022-08-05T22:11:15.714Z,100.00
2022-08-05T22:14:33.883Z,100.00
2022-08-05T22:16:51.043Z,100.00
2022-08-05T22:20:00.467Z,100.00
2022-08-05T22:22:12.049Z,100.00
2022-08-05T22:24:59.391Z,100.00
2022-08-05T22:28:10.496Z,100.00
2022-08-05T22:30:35.434Z,100.00
2022-08-05T22:33:15.643Z,100.00
2022-08-05T22:35:48.641Z,100.00
2022-08-05T22:38:19.797Z,100.00
2022-08-05T22:40:55.208Z,100.00
2022-08-05T22:43:37.015Z,100.00
2022-08-05T22:46:13.615Z,100.00
2022-08-05T22:48:52.966Z,100.00
2022-08-05T22:52:03.120Z,100.00
2022-08-05T22:54:12.299Z,100.00
2022-08-05T22:56:41.764Z,100.00
2022-08-05T22:59:46.500Z,100.00
2022-08-05T23:02:05.644Z,100.00
2022-08-05T23:04:37.634Z,100.00
2022-08-05T23:07:07.565Z,100.00
2022-08-05T23:09:58.310Z,100.00
2022-08-05T23:12:28.583Z,100.00
2022-08-05T23:15:00.192Z,100.00
2022-08-05T23:17:59.608Z,100.00
2022-08-05T23:20:24.422Z,100.00
2022-08-05T23:22:56.349Z,100.00
2022-08-05T23:25:51.905Z,100.00
2022-08-05T23:28:17.260Z,100.00
2022-08-05T23:30:53.735Z,100.00
2022-08-05T23:34:03.110Z,100.00
2022-08-05T23:36:14.457Z,100.00
2022-08-05T23:38:44.745Z,100.00
2022-08-05T23:41:14.355Z,100.00
2022-08-05T23:44:04.292Z,100.00
2022-08-05T23:46:34.693Z,100.00
2022-08-05T23:49:15.700Z,100.00
2022-08-05T23:52:03.233Z,100.00
2022-08-05T23:54:38.667Z,100.00
2022-08-05T23:57:10.250Z,100.00
